Time;durP1;ratioP1;P1;durP2;ratioP2;P2;SDS_P1;SDS_P2;PMS_P1;PMS_P2;Temp;Humidity;BMP_temperature;BMP_pressure;BME280_temperature;BME280_humidity;BME280_pressure;Samples;Min_cycle;Max_cycle;Signal;HPM_P1;HPM_P2
2022/09/10 00:00:53;;;;;;;;;;;;;;;15.28;100.00;100319.47;3055866;19;19990;-46
2022/09/10 00:01:58;;;;;;;;;;;;;;;15.19;100.00;100314.88;3055125;19;19966;-48
2022/09/10 00:03:00;;;;;;;;;;;;;;;15.06;100.00;100306.13;3054524;19;19926;-46
2022/09/10 00:04:05;;;;;;;;;;;;;;;15.12;100.00;100302.91;3054906;19;19915;-49
2022/09/10 00:05:08;;;;;;;;;;;;;;;15.10;100.00;100296.81;3055434;19;20322;-45
2022/09/10 00:06:14;;;;;;;;;;;;;;;15.08;100.00;100296.13;3055015;19;20491;-49
2022/09/10 00:07:17;;;;;;;;;;;;;;;15.06;100.00;100301.59;3055678;19;19978;-47
2022/09/10 00:08:22;;;;;;;;;;;;;;;15.06;100.00;100298.94;3055252;19;19947;-46
2022/09/10 00:09:26;;;;;;;;;;;;;;;15.08;100.00;100290.75;3055282;19;20327;-46
2022/09/10 00:10:28;;;;;;;;;;;;;;;15.09;100.00;100292.44;3055320;19;19935;-48
2022/09/10 00:11:34;;;;;;;;;;;;;;;15.09;100.00;100281.69;3055332;19;19947;-45
2022/09/10 00:12:35;;;;;;;;;;;;;;;15.02;100.00;100288.53;3054547;19;19974;-48
2022/09/10 00:13:40;;;;;;;;;;;;;;;14.96;100.00;100286.38;3055103;19;19990;-48
2022/09/10 00:14:42;;;;;;;;;;;;;;;14.92;100.00;100272.34;3055434;19;19927;-49
2022/09/10 00:15:48;;;;;;;;;;;;;;;14.97;100.00;100271.97;3054234;19;20232;-49
2022/09/10 00:16:50;;;;;;;;;;;;;;;14.95;100.00;100265.88;3054454;19;19952;-49
2022/09/10 00:17:54;;;;;;;;;;;;;;;14.94;100.00;100264.16;3054995;19;20020;-49
2022/09/10 00:18:56;;;;;;;;;;;;;;;14.94;100.00;100266.84;3055251;19;20266;-48
2022/09/10 00:20:01;;;;;;;;;;;;;;;14.97;100.00;100259.34;3054923;19;20077;-47
2022/09/10 00:21:11;;;;;;;;;;;;;;;14.96;100.00;100270.25;3054957;19;20096;-49
2022/09/10 00:22:15;;;;;;;;;;;;;;;14.96;100.00;100262.19;3055419;19;19926;-48
2022/09/10 00:23:18;;;;;;;;;;;;;;;14.93;100.00;100254.38;3054620;19;19947;-48
2022/09/10 00:24:23;;;;;;;;;;;;;;;14.93;100.00;100254.38;3054711;19;19915;-47
2022/09/10 00:25:24;;;;;;;;;;;;;;;14.89;100.00;100247.53;3055065;19;19943;-48
2022/09/10 00:26:33;;;;;;;;;;;;;;;14.82;100.00;100254.44;3054083;19;19919;-46
2022/09/10 00:27:35;;;;;;;;;;;;;;;14.80;100.00;100249.19;3054365;19;19922;-51
2022/09/10 00:28:39;;;;;;;;;;;;;;;14.82;100.00;100243.69;3054974;19;19919;-48
2022/09/10 00:29:41;;;;;;;;;;;;;;;14.85;100.00;100246.13;3058229;19;19971;-49
2022/09/10 00:30:46;;;;;;;;;;;;;;;14.83;100.00;100242.69;3058077;19;19940;-46
2022/09/10 00:31:48;;;;;;;;;;;;;;;14.77;100.00;100239.53;3058172;19;20243;-48
2022/09/10 00:32:53;;;;;;;;;;;;;;;14.80;100.00;100238.44;3057595;19;19923;-46
2022/09/10 00:33:55;;;;;;;;;;;;;;;14.78;100.00;100241.25;3057935;19;19930;-47
2022/09/10 00:35:00;;;;;;;;;;;;;;;14.82;100.00;100235.63;3057074;19;19939;-48
2022/09/10 00:36:04;;;;;;;;;;;;;;;14.82;100.00;100241.84;3057125;19;19922;-48
2022/09/10 00:37:09;;;;;;;;;;;;;;;14.83;100.00;100242.69;3056513;19;19919;-47
2022/09/10 00:38:12;;;;;;;;;;;;;;;14.83;100.00;100237.31;3057780;19;20306;-48
2022/09/10 00:39:19;;;;;;;;;;;;;;;14.77;100.00;100234.16;3058132;19;20005;-47
2022/09/10 00:40:21;;;;;;;;;;;;;;;14.81;100.00;100229.38;3058083;19;19923;-47
2022/09/10 00:41:26;;;;;;;;;;;;;;;14.81;100.00;100234.75;3056292;19;19995;-48
2022/09/10 00:42:27;;;;;;;;;;;;;;;14.85;100.00;100240.75;3056994;19;20322;-47
2022/09/10 00:43:47;;;;;;;;;;;;;;;14.82;100.00;100235.63;3056193;19;20050;-47
2022/09/10 00:44:59;;;;;;;;;;;;;;;14.83;100.00;100242.69;3057258;19;19922;-46
2022/09/10 00:46:04;;;;;;;;;;;;;;;14.85;100.00;100241.59;3057460;19;19937;-46
2022/09/10 00:47:12;;;;;;;;;;;;;;;14.85;100.00;100235.38;3057116;19;19922;-45
2022/09/10 00:48:18;;;;;;;;;;;;;;;14.82;100.00;100241.84;3057084;19;19915;-47
2022/09/10 00:49:22;;;;;;;;;;;;;;;14.82;100.00;100241.00;3057033;19;19918;-46
2022/09/10 00:50:28;;;;;;;;;;;;;;;14.84;100.00;100239.03;3056891;19;20334;-48
2022/09/10 00:51:31;;;;;;;;;;;;;;;14.83;100.00;100248.94;3057370;19;20017;-48
2022/09/10 00:52:37;;;;;;;;;;;;;;;14.85;100.00;100251.50;3056940;19;19980;-50
2022/09/10 00:53:41;;;;;;;;;;;;;;;14.86;100.00;100254.03;3056681;19;19929;-48
2022/09/10 00:54:46;;;;;;;;;;;;;;;14.87;100.00;100249.50;3056787;19;19975;-49
2022/09/10 00:55:49;;;;;;;;;;;;;;;14.84;100.00;100247.09;3056930;19;19986;-46
2022/09/10 00:56:53;;;;;;;;;;;;;;;14.87;100.00;100244.97;3056880;19;20013;-44
2022/09/10 00:57:56;;;;;;;;;;;;;;;14.89;100.00;100244.88;3056779;19;20266;-50
2022/09/10 00:59:00;;;;;;;;;;;;;;;14.90;100.00;100254.63;3056753;19;19918;-51
2022/09/10 01:00:04;;;;;;;;;;;;;;;14.89;100.00;100253.78;3057236;19;19976;-49
2022/09/10 01:01:09;;;;;;;;;;;;;;;14.91;100.00;100248.28;3056333;19;20266;-49
2022/09/10 01:02:11;;;;;;;;;;;;;;;14.91;100.00;100251.81;3056906;19;19936;-48
2022/09/10 01:03:18;;;;;;;;;;;;;;;14.92;100.00;100241.94;3057752;19;19923;-47
2022/09/10 01:04:25;;;;;;;;;;;;;;;14.89;100.00;100253.78;3056788;19;19929;-48
2022/09/10 01:05:30;;;;;;;;;;;;;;;14.89;100.00;100244.88;3056791;19;20315;-48
2022/09/10 01:06:32;;;;;;;;;;;;;;;14.89;100.00;100248.41;3056983;19;19925;-49
2022/09/10 01:07:37;;;;;;;;;;;;;;;14.81;100.00;100228.53;3057001;19;19927;-48
2022/09/10 01:08:39;;;;;;;;;;;;;;;14.82;100.00;100230.25;3056509;19;19956;-48
2022/09/10 01:09:44;;;;;;;;;;;;;;;14.88;100.00;100240.47;3056582;19;19942;-50
2022/09/10 01:10:53;;;;;;;;;;;;;;;14.87;100.00;100244.13;3056818;19;19923;-47
2022/09/10 01:12:16;;;;;;;;;;;;;;;14.88;100.00;100235.09;3056710;19;19919;-44
2022/09/10 01:13:36;;;;;;;;;;;;;;;14.87;100.00;100238.75;3057141;19;19919;-49
2022/09/10 01:14:42;;;;;;;;;;;;;;;14.87;100.00;100238.75;3056456;19;19923;-48
2022/09/10 01:16:03;;;;;;;;;;;;;;;14.77;100.00;100239.53;3056739;19;20021;-47
2022/09/10 01:17:14;;;;;;;;;;;;;;;14.80;100.00;100237.56;3056202;19;20574;-49
2022/09/10 01:18:16;;;;;;;;;;;;;;;14.80;100.00;100237.56;3057151;19;20343;-45
2022/09/10 01:19:36;;;;;;;;;;;;;;;14.81;100.00;100240.13;3056390;19;19915;-46
2022/09/10 01:20:50;;;;;;;;;;;;;;;14.85;100.00;100238.91;3057835;19;19923;-45
2022/09/10 01:22:00;;;;;;;;;;;;;;;14.84;100.00;100230.97;3057081;19;19978;-50
2022/09/10 01:23:14;;;;;;;;;;;;;;;14.84;100.00;100233.66;3056708;19;19919;-46
2022/09/10 01:24:39;;;;;;;;;;;;;;;14.83;100.00;100226.59;3055869;19;19943;-48
2022/09/10 01:25:55;;;;;;;;;;;;;;;14.80;100.00;100233.06;3056664;19;19923;-48
2022/09/10 01:27:18;;;;;;;;;;;;;;;14.74;100.00;100228.19;3057306;19;19951;-46
2022/09/10 01:28:29;;;;;;;;;;;;;;;14.71;100.00;100225.78;3057527;19;20010;-46
2022/09/10 01:29:36;;;;;;;;;;;;;;;14.74;100.00;100223.66;3055941;19;20262;-48
2022/09/10 01:30:40;;;;;;;;;;;;;;;14.71;100.00;100229.31;3056310;19;19930;-50
2022/09/10 01:31:48;;;;;;;;;;;;;;;14.67;100.00;100222.47;3056402;19;20014;-49
2022/09/10 01:33:02;;;;;;;;;;;;;;;14.68;100.00;100218.81;3056596;19;20007;-47
2022/09/10 01:34:14;;;;;;;;;;;;;;;14.67;100.00;100217.09;3056420;19;20279;-46
2022/09/10 01:35:24;;;;;;;;;;;;;;;14.68;100.00;100218.81;3056854;19;19919;-47
2022/09/10 01:36:27;;;;;;;;;;;;;;;14.69;100.00;100216.97;3056522;19;20362;-45
2022/09/10 01:37:32;;;;;;;;;;;;;;;14.69;100.00;100217.84;3056230;19;19947;-44
2022/09/10 01:38:34;;;;;;;;;;;;;;;14.67;100.00;100211.72;3056192;19;19923;-47
2022/09/10 01:39:40;;;;;;;;;;;;;;;14.70;100.00;100214.16;3056470;19;19926;-46
2022/09/10 01:40:43;;;;;;;;;;;;;;;14.71;100.00;100212.34;3055282;19;19947;-46
2022/09/10 01:41:51;;;;;;;;;;;;;;;14.72;100.00;100219.41;3055279;19;19922;-50
2022/09/10 01:43:02;;;;;;;;;;;;;;;14.71;100.00;100223.94;3056394;19;19935;-48
2022/09/10 01:44:11;;;;;;;;;;;;;;;14.71;100.00;100217.72;3055425;19;19985;-48
2022/09/10 01:45:16;;;;;;;;;;;;;;;14.69;100.00;100215.16;3056340;19;19926;-48
2022/09/10 01:46:41;;;;;;;;;;;;;;;14.68;100.00;100217.97;3055832;19;20355;-45
2022/09/10 01:47:43;;;;;;;;;;;;;;;14.69;100.00;100220.53;3056459;19;19947;-48
2022/09/10 01:49:08;;;;;;;;;;;;;;;14.60;100.00;100210.53;3055872;19;20008;-49
2022/09/10 01:50:11;;;;;;;;;;;;;;;14.54;100.00;100211.03;3055107;19;19939;-47
2022/09/10 01:51:19;;;;;;;;;;;;;;;14.57;100.00;100205.41;3056008;19;19923;-48
2022/09/10 01:52:25;;;;;;;;;;;;;;;14.60;100.00;100210.53;3056339;19;19931;-46
2022/09/10 01:53:34;;;;;;;;;;;;;;;14.62;100.00;100205.88;3055880;19;19919;-48
2022/09/10 01:54:41;;;;;;;;;;;;;;;14.59;100.00;100206.16;3056015;19;19923;-48
2022/09/10 01:55:45;;;;;;;;;;;;;;;14.59;100.00;100211.53;3056171;19;19918;-47
2022/09/10 01:56:49;;;;;;;;;;;;;;;14.63;100.00;100212.94;3056335;19;19991;-46
2022/09/10 01:57:56;;;;;;;;;;;;;;;14.59;100.00;100211.53;3056016;19;20372;-47
2022/09/10 01:59:13;;;;;;;;;;;;;;;14.57;100.00;100221.53;3055753;19;19986;-47
2022/09/10 02:00:20;;;;;;;;;;;;;;;14.46;100.00;100213.50;3056456;19;19931;-45
2022/09/10 02:01:28;;;;;;;;;;;;;;;14.45;100.00;100201.06;3056184;19;19932;-50
2022/09/10 02:02:35;;;;;;;;;;;;;;;14.43;100.00;100203.00;3055819;19;19974;-48
2022/09/10 02:03:38;;;;;;;;;;;;;;;14.43;100.00;100203.00;3055956;19;19915;-46
2022/09/10 02:04:44;;;;;;;;;;;;;;;14.46;100.00;100208.13;3055190;19;19959;-48
2022/09/10 02:05:47;;;;;;;;;;;;;;;14.46;100.00;100213.50;3056425;19;19931;-48
2022/09/10 02:06:52;;;;;;;;;;;;;;;14.47;100.00;100209.84;3055781;19;19919;-49
2022/09/10 02:07:58;;;;;;;;;;;;;;;14.49;100.00;100220.47;3056406;19;19979;-49
2022/09/10 02:09:03;;;;;;;;;;;;;;;14.54;100.00;100227.16;3055628;19;19926;-49
2022/09/10 02:10:06;;;;;;;;;;;;;;;14.58;100.00;100217.03;3056166;19;19911;-49
2022/09/10 02:11:16;;;;;;;;;;;;;;;14.60;100.00;100212.38;3055716;19;19978;-48
2022/09/10 02:12:22;;;;;;;;;;;;;;;14.61;100.00;100220.28;3056227;19;19918;-45
2022/09/10 02:13:47;;;;;;;;;;;;;;;14.64;100.00;100214.66;3056141;19;19922;-48
2022/09/10 02:14:57;;;;;;;;;;;;;;;14.65;100.00;100213.69;3055857;19;19919;-45
2022/09/10 02:16:39;;;;;;;;;;;;;;;14.64;100.00;100214.66;3056169;19;19942;-47
2022/09/10 02:17:41;;;;;;;;;;;;;;;14.63;100.00;100215.63;3055704;19;20308;-47
2022/09/10 02:18:46;;;;;;;;;;;;;;;14.66;100.00;100215.41;3055966;19;19922;-49
2022/09/10 02:19:50;;;;;;;;;;;;;;;14.67;100.00;100217.09;3055935;19;19959;-48
2022/09/10 02:20:57;;;;;;;;;;;;;;;14.65;100.00;100213.69;3055899;19;20030;-46
2022/09/10 02:21:59;;;;;;;;;;;;;;;14.66;100.00;100214.53;3055839;19;19919;-47
2022/09/10 02:23:04;;;;;;;;;;;;;;;14.67;100.00;100211.72;3055980;19;19986;-47
2022/09/10 02:24:07;;;;;;;;;;;;;;;14.68;100.00;100212.59;3055573;19;20331;-45
2022/09/10 02:25:12;;;;;;;;;;;;;;;14.69;100.00;100212.47;3054975;19;19919;-49
2022/09/10 02:26:14;;;;;;;;;;;;;;;14.70;100.00;100216.84;3055791;19;19957;-47
2022/09/10 02:27:18;;;;;;;;;;;;;;;14.68;100.00;100218.81;3055580;19;19926;-47
2022/09/10 02:28:20;;;;;;;;;;;;;;;14.68;100.00;100218.81;3054884;19;19930;-48
2022/09/10 02:29:24;;;;;;;;;;;;;;;14.70;100.00;100216.84;3055499;19;19978;-50
2022/09/10 02:30:26;;;;;;;;;;;;;;;14.73;100.00;100219.25;3055774;19;20276;-50
2022/09/10 02:31:30;;;;;;;;;;;;;;;14.70;100.00;100210.63;3055533;19;20031;-49
2022/09/10 02:32:33;;;;;;;;;;;;;;;14.70;100.00;100207.94;3055737;19;19929;-45
2022/09/10 02:33:37;;;;;;;;;;;;;;;14.70;100.00;100208.78;3055272;19;19940;-46
2022/09/10 02:34:39;;;;;;;;;;;;;;;14.68;100.00;100209.91;3055745;19;19976;-46
2022/09/10 02:35:46;;;;;;;;;;;;;;;14.65;100.00;100207.47;3055573;19;20005;-48
2022/09/10 02:36:49;;;;;;;;;;;;;;;14.66;100.00;100211.84;3055776;19;19990;-47
2022/09/10 02:37:53;;;;;;;;;;;;;;;14.66;100.00;100204.66;3055562;19;19996;-45
2022/09/10 02:38:55;;;;;;;;;;;;;;;14.67;100.00;100206.34;3056490;19;19922;-46
2022/09/10 02:40:01;;;;;;;;;;;;;;;14.67;100.00;100201.00;3055742;19;19925;-49
2022/09/10 02:41:03;;;;;;;;;;;;;;;14.66;100.00;100199.28;3055625;19;19919;-49
2022/09/10 02:42:08;;;;;;;;;;;;;;;14.68;100.00;100201.84;3055499;19;19947;-46
2022/09/10 02:43:10;;;;;;;;;;;;;;;14.69;100.00;100203.56;3054991;19;19919;-49
2022/09/10 02:44:15;;;;;;;;;;;;;;;14.69;100.00;100198.19;3055262;19;19944;-46
2022/09/10 02:45:17;;;;;;;;;;;;;;;14.70;100.00;100200.75;3055870;19;19919;-46
2022/09/10 02:46:21;;;;;;;;;;;;;;;14.72;100.00;100193.41;3055876;19;20299;-46
2022/09/10 02:47:24;;;;;;;;;;;;;;;14.71;100.00;100191.72;3055399;19;19914;-47
2022/09/10 02:48:30;;;;;;;;;;;;;;;14.73;100.00;100189.72;3055217;19;20254;-48
2022/09/10 02:49:33;;;;;;;;;;;;;;;14.71;100.00;100189.03;3055735;19;19934;-48
2022/09/10 02:50:38;;;;;;;;;;;;;;;14.72;100.00;100192.56;3055357;19;20341;-47
2022/09/10 02:51:41;;;;;;;;;;;;;;;14.72;100.00;100193.41;3055649;19;19915;-49
2022/09/10 02:52:45;;;;;;;;;;;;;;;14.67;100.00;100195.63;3052759;19;20488;-46
2022/09/10 02:53:48;;;;;;;;;;;;;;;14.61;100.00;100188.06;3054902;19;19983;-48
2022/09/10 02:54:53;;;;;;;;;;;;;;;14.62;100.00;100183.53;3055088;19;20451;-47
2022/09/10 02:55:55;;;;;;;;;;;;;;;14.64;100.00;100182.44;3055446;19;19987;-47
2022/09/10 02:56:59;;;;;;;;;;;;;;;14.64;100.00;100184.25;3054653;19;19922;-48
2022/09/10 02:58:01;;;;;;;;;;;;;;;14.66;100.00;100185.00;3055578;19;19966;-49
2022/09/10 02:59:06;;;;;;;;;;;;;;;14.60;100.00;100183.69;3054712;19;19987;-50
2022/09/10 03:00:09;;;;;;;;;;;;;;;14.59;100.00;100184.66;3055435;19;19921;-48
2022/09/10 03:01:15;;;;;;;;;;;;;;;14.59;100.00;100181.97;3055318;19;19923;-47
2022/09/10 03:02:20;;;;;;;;;;;;;;;14.57;100.00;100178.56;3055209;19;19919;-46
2022/09/10 03:03:27;;;;;;;;;;;;;;;14.61;100.00;100184.53;3055272;19;19922;-49
2022/09/10 03:04:29;;;;;;;;;;;;;;;14.55;100.00;100180.53;3056411;19;19935;-50
2022/09/10 03:05:34;;;;;;;;;;;;;;;14.56;100.00;100181.38;3055370;19;19922;-47
2022/09/10 03:06:37;;;;;;;;;;;;;;;14.57;100.00;100180.41;3056266;19;19926;-49
2022/09/10 03:07:41;;;;;;;;;;;;;;;14.55;100.00;100180.53;3055123;19;19927;-50
2022/09/10 03:08:43;;;;;;;;;;;;;;;14.54;100.00;100178.81;3055585;19;19926;-46
2022/09/10 03:09:48;;;;;;;;;;;;;;;14.59;100.00;100189.19;3056024;19;19927;-47
2022/09/10 03:10:50;;;;;;;;;;;;;;;14.57;100.00;100181.25;3056160;19;20246;-48
2022/09/10 03:11:54;;;;;;;;;;;;;;;14.57;100.00;100175.88;3055596;19;19927;-49
2022/09/10 03:12:57;;;;;;;;;;;;;;;14.56;100.00;100189.44;3056297;19;19931;-49
2022/09/10 03:14:01;;;;;;;;;;;;;;;14.55;100.00;100183.22;3054575;19;19938;-50
2022/09/10 03:15:05;;;;;;;;;;;;;;;14.55;100.00;100183.22;3055447;19;20574;-46
2022/09/10 03:16:12;;;;;;;;;;;;;;;14.58;100.00;100180.28;3054772;19;19978;-47
2022/09/10 03:17:13;;;;;;;;;;;;;;;14.61;100.00;100182.69;3055183;19;19919;-47
2022/09/10 03:18:18;;;;;;;;;;;;;;;14.60;100.00;100183.69;3055225;19;19926;-48
2022/09/10 03:19:20;;;;;;;;;;;;;;;14.60;100.00;100183.69;3055050;19;20413;-49
2022/09/10 03:20:24;;;;;;;;;;;;;;;14.60;100.00;100183.69;3055878;19;19926;-48
2022/09/10 03:21:28;;;;;;;;;;;;;;;14.64;100.00;100184.25;3055209;19;19911;-48
2022/09/10 03:22:34;;;;;;;;;;;;;;;14.63;100.00;100188.78;3054956;19;20393;-46
2022/09/10 03:25:10;;;;;;;;;;;;;;;14.62;100.00;100187.06;3047686;19;19923;-49
2022/09/10 03:26:13;;;;;;;;;;;;;;;14.61;100.00;100187.22;3053665;19;20333;-48
2022/09/10 03:27:19;;;;;;;;;;;;;;;14.57;100.00;100183.94;3054421;19;20645;-46
2022/09/10 03:28:22;;;;;;;;;;;;;;;14.56;100.00;100192.97;3054455;19;20388;-47
2022/09/10 03:29:28;;;;;;;;;;;;;;;14.60;100.00;100197.13;3055979;19;19927;-48
2022/09/10 03:30:32;;;;;;;;;;;;;;;14.62;100.00;100202.34;3055011;19;19959;-46
2022/09/10 03:31:36;;;;;;;;;;;;;;;14.61;100.00;100206.03;3054747;19;19942;-47
2022/09/10 03:32:38;;;;;;;;;;;;;;;14.59;100.00;100198.09;3054798;19;19919;-46
2022/09/10 03:33:44;;;;;;;;;;;;;;;14.61;100.00;100211.41;3055062;19;19939;-49
2022/09/10 03:34:48;;;;;;;;;;;;;;;14.62;100.00;100208.56;3054680;19;19923;-50
2022/09/10 03:35:54;;;;;;;;;;;;;;;14.64;100.00;100211.13;3055018;19;20329;-48
2022/09/10 03:37:03;;;;;;;;;;;;;;;14.62;100.00;100208.56;3054962;19;20389;-46
2022/09/10 03:38:04;;;;;;;;;;;;;;;14.63;100.00;100210.28;3054734;19;19999;-45
2022/09/10 03:39:09;;;;;;;;;;;;;;;14.65;100.00;100219.06;3054874;19;19922;-48
2022/09/10 03:40:11;;;;;;;;;;;;;;;14.65;100.00;100211.00;3055728;19;19943;-47
2022/09/10 03:41:15;;;;;;;;;;;;;;;14.64;100.00;100211.97;3056452;19;19962;-48
2022/09/10 03:42:18;;;;;;;;;;;;;;;14.62;100.00;100219.31;3054671;19;19998;-48
2022/09/10 03:43:23;;;;;;;;;;;;;;;14.64;100.00;100220.03;3054406;19;19923;-47
2022/09/10 03:44:26;;;;;;;;;;;;;;;14.62;100.00;100223.81;3054516;19;19918;-47
2022/09/10 03:45:31;;;;;;;;;;;;;;;14.60;100.00;100215.91;3054623;19;20609;-47
2022/09/10 03:46:33;;;;;;;;;;;;;;;14.59;100.00;100214.22;3054726;19;19934;-48
2022/09/10 03:47:39;;;;;;;;;;;;;;;14.59;100.00;100208.84;3055076;19;19995;-48
2022/09/10 03:48:42;;;;;;;;;;;;;;;14.58;100.00;100209.81;3054559;19;19990;-49
2022/09/10 03:49:46;;;;;;;;;;;;;;;14.55;100.00;100217.25;3055485;19;19926;-45
2022/09/10 03:50:50;;;;;;;;;;;;;;;14.56;100.00;100216.28;3054977;19;19944;-46
2022/09/10 03:51:55;;;;;;;;;;;;;;;14.55;100.00;100212.75;3054760;19;19927;-46
2022/09/10 03:52:58;;;;;;;;;;;;;;;14.54;100.00;100210.19;3055785;19;20004;-47
2022/09/10 03:54:02;;;;;;;;;;;;;;;14.55;100.00;100209.22;3054729;19;20040;-46
2022/09/10 03:55:06;;;;;;;;;;;;;;;14.55;100.00;100210.06;3054639;19;19975;-47
2022/09/10 03:56:11;;;;;;;;;;;;;;;14.56;100.00;100213.59;3054855;19;19940;-48
2022/09/10 03:57:14;;;;;;;;;;;;;;;14.55;100.00;100203.84;3054807;19;19939;-45
2022/09/10 03:58:19;;;;;;;;;;;;;;;14.57;100.00;100216.16;3054521;19;19919;-52
2022/09/10 03:59:21;;;;;;;;;;;;;;;14.53;100.00;100203.97;3054680;19;20374;-47
2022/09/10 04:00:25;;;;;;;;;;;;;;;14.55;100.00;100210.06;3054442;19;19915;-49
2022/09/10 04:01:27;;;;;;;;;;;;;;;14.53;100.00;100209.34;3056069;19;19919;-48
2022/09/10 04:02:32;;;;;;;;;;;;;;;14.51;100.00;100205.91;3054728;19;19926;-48
2022/09/10 04:03:34;;;;;;;;;;;;;;;14.52;100.00;100206.75;3054280;19;19923;-49
2022/09/10 04:04:38;;;;;;;;;;;;;;;14.49;100.00;100204.34;3057178;19;19923;-46
2022/09/10 04:05:42;;;;;;;;;;;;;;;14.46;100.00;100205.47;3057675;19;19923;-48
2022/09/10 04:06:47;;;;;;;;;;;;;;;14.42;100.00;100201.31;3056853;19;20003;-49
2022/09/10 04:07:50;;;;;;;;;;;;;;;14.44;100.00;100199.34;3057654;19;19985;-48
2022/09/10 04:08:55;;;;;;;;;;;;;;;14.43;100.00;100203.00;3055564;19;20027;-47
2022/09/10 04:09:57;;;;;;;;;;;;;;;14.41;100.00;100199.59;3056806;19;19983;-48
2022/09/10 04:11:05;;;;;;;;;;;;;;;14.42;100.00;100201.31;3057382;19;20021;-45
2022/09/10 04:12:07;;;;;;;;;;;;;;;14.43;100.00;100196.78;3056267;19;20317;-48
2022/09/10 04:13:12;;;;;;;;;;;;;;;14.35;100.00;100194.72;3057013;19;19930;-47
2022/09/10 04:14:14;;;;;;;;;;;;;;;14.38;100.00;100199.81;3056603;19;19998;-48
2022/09/10 04:15:19;;;;;;;;;;;;;;;14.34;100.00;100187.63;3057462;19;19927;-47
2022/09/10 04:16:22;;;;;;;;;;;;;;;14.41;100.00;100194.22;3057299;19;19938;-47
2022/09/10 04:17:27;;;;;;;;;;;;;;;14.43;100.00;100192.28;3057920;19;19919;-44
2022/09/10 04:18:30;;;;;;;;;;;;;;;14.42;100.00;100198.63;3056464;19;20291;-45
2022/09/10 04:19:35;;;;;;;;;;;;;;;14.42;100.00;100187.88;3058186;19;19927;-49
2022/09/10 04:20:41;;;;;;;;;;;;;;;14.44;100.00;100193.97;3057508;19;20325;-47
2022/09/10 04:21:47;;;;;;;;;;;;;;;14.43;100.00;100183.38;3057603;19;19927;-44
2022/09/10 04:22:50;;;;;;;;;;;;;;;14.43;100.00;100184.22;3057798;19;19919;-48
2022/09/10 04:23:55;;;;;;;;;;;;;;;14.44;100.00;100179.69;3056653;19;19938;-48
2022/09/10 04:24:58;;;;;;;;;;;;;;;14.43;100.00;100181.53;3056753;19;19930;-45
2022/09/10 04:26:03;;;;;;;;;;;;;;;14.41;100.00;100170.06;3057425;19;19938;-44
2022/09/10 04:27:05;;;;;;;;;;;;;;;14.42;100.00;100163.72;3059549;19;19978;-47
2022/09/10 04:28:10;;;;;;;;;;;;;;;14.42;100.00;100169.09;3056744;19;20328;-46
2022/09/10 04:29:12;;;;;;;;;;;;;;;14.40;100.00;100171.03;3057670;19;19930;-47
2022/09/10 04:30:17;;;;;;;;;;;;;;;14.37;100.00;100166.75;3057057;19;19923;-50
2022/09/10 04:31:19;;;;;;;;;;;;;;;14.40;100.00;100173.72;3057802;19;19922;-46
2022/09/10 04:32:25;;;;;;;;;;;;;;;14.41;100.00;100172.75;3057602;19;19943;-50
2022/09/10 04:33:27;;;;;;;;;;;;;;;14.44;100.00;100177.88;3057473;19;19934;-46
2022/09/10 04:34:31;;;;;;;;;;;;;;;14.42;100.00;100179.81;3056990;19;19964;-47
2022/09/10 04:35:33;;;;;;;;;;;;;;;14.45;100.00;100179.59;3057480;19;19974;-48
2022/09/10 04:36:40;;;;;;;;;;;;;;;14.44;100.00;100177.88;3057323;19;19935;-47
2022/09/10 04:37:42;;;;;;;;;;;;;;;14.40;100.00;100171.91;3057550;19;19938;-45
2022/09/10 04:38:47;;;;;;;;;;;;;;;14.40;100.00;100165.69;3057021;19;19918;-46
2022/09/10 04:39:51;;;;;;;;;;;;;;;14.30;100.00;100172.75;3057737;19;19927;-45
2022/09/10 04:40:56;;;;;;;;;;;;;;;14.24;100.00;100170.59;3057163;19;19958;-45
2022/09/10 04:41:58;;;;;;;;;;;;;;;14.27;100.00;100159.56;3057100;19;19935;-47
2022/09/10 04:43:03;;;;;;;;;;;;;;;14.30;100.00;100156.66;3056805;19;19926;-48
2022/09/10 04:44:06;;;;;;;;;;;;;;;14.31;100.00;100151.16;3057073;19;19930;-48
2022/09/10 04:45:11;;;;;;;;;;;;;;;14.24;100.00;100144.59;3057061;19;19922;-48
2022/09/10 04:46:14;;;;;;;;;;;;;;;14.25;100.00;100156.19;3057303;19;19923;-50
2022/09/10 04:47:20;;;;;;;;;;;;;;;14.23;100.00;100150.09;3056041;19;19930;-45
2022/09/10 04:48:22;;;;;;;;;;;;;;;14.10;100.00;100144.00;3058046;19;19918;-49
2022/09/10 04:49:26;;;;;;;;;;;;;;;14.15;100.00;100139.09;3057137;19;19926;-48
2022/09/10 04:50:29;;;;;;;;;;;;;;;14.13;100.00;100135.72;3057289;19;19930;-49
2022/09/10 04:51:43;;;;;;;;;;;;;;;14.09;100.00;100137.78;3057051;19;19923;-50
2022/09/10 04:52:45;;;;;;;;;;;;;;;13.99;100.00;100134.16;3057175;19;19914;-49
2022/09/10 04:53:50;;;;;;;;;;;;;;;13.90;100.00;100146.47;3056328;19;20426;-45
2022/09/10 04:54:53;;;;;;;;;;;;;;;13.94;100.00;100134.53;3057053;19;19930;-48
2022/09/10 04:55:58;;;;;;;;;;;;;;;14.01;100.00;100133.03;3056817;19;19922;-49
2022/09/10 04:57:00;;;;;;;;;;;;;;;13.96;100.00;100137.94;3057057;19;19923;-49
2022/09/10 04:58:05;;;;;;;;;;;;;;;14.02;100.00;100134.75;3057637;19;19946;-47
2022/09/10 04:59:07;;;;;;;;;;;;;;;14.09;100.00;100135.13;3056988;19;20352;-47
2022/09/10 05:00:13;;;;;;;;;;;;;;;14.15;100.00;100139.09;3057115;19;19957;-48
2022/09/10 05:01:15;;;;;;;;;;;;;;;14.20;100.00;100144.97;3058462;19;19932;-49
2022/09/10 05:02:21;;;;;;;;;;;;;;;14.18;100.00;100152.28;3056991;19;19919;-50
2022/09/10 05:03:23;;;;;;;;;;;;;;;14.22;100.00;100151.06;3056701;19;19927;-45
2022/09/10 05:04:29;;;;;;;;;;;;;;;14.23;100.00;100152.78;3056848;19;19979;-48
2022/09/10 05:05:33;;;;;;;;;;;;;;;14.28;100.00;100151.41;3056754;19;19923;-46
2022/09/10 05:06:38;;;;;;;;;;;;;;;14.31;100.00;100142.25;3056945;19;19922;-44
2022/09/10 05:07:42;;;;;;;;;;;;;;;14.32;100.00;100143.97;3057308;19;20648;-47
2022/09/10 05:08:47;;;;;;;;;;;;;;;14.32;100.00;100141.28;3056760;19;20008;-47
2022/09/10 05:09:49;;;;;;;;;;;;;;;14.29;100.00;100131.63;3057633;19;19923;-46
2022/09/10 05:10:54;;;;;;;;;;;;;;;14.30;100.00;100132.50;3057207;19;19918;-48
2022/09/10 05:11:56;;;;;;;;;;;;;;;14.19;100.00;100140.56;3057115;19;19919;-45
2022/09/10 05:13:01;;;;;;;;;;;;;;;14.24;100.00;100138.38;3056853;19;19952;-49
2022/09/10 05:14:04;;;;;;;;;;;;;;;14.30;100.00;100148.59;3056494;19;19918;-47
2022/09/10 05:15:09;;;;;;;;;;;;;;;14.32;100.00;100152.88;3056413;19;19990;-48
2022/09/10 05:16:11;;;;;;;;;;;;;;;14.36;100.00;100153.47;3055083;19;20049;-47
2022/09/10 05:17:16;;;;;;;;;;;;;;;14.40;100.00;100161.16;3056751;19;20385;-46
2022/09/10 05:18:18;;;;;;;;;;;;;;;14.44;100.00;100160.91;3056488;19;19923;-49
2022/09/10 05:19:23;;;;;;;;;;;;;;;14.48;100.00;100162.38;3056583;19;19964;-47
2022/09/10 05:20:31;;;;;;;;;;;;;;;14.51;100.00;100157.56;3056589;19;19923;-50
2022/09/10 05:21:35;;;;;;;;;;;;;;;14.52;100.00;100164.66;3056836;19;19939;-47
2022/09/10 05:22:37;;;;;;;;;;;;;;;14.47;100.00;100160.66;3056526;19;20008;-48
2022/09/10 05:23:44;;;;;;;;;;;;;;;14.51;100.00;100168.31;3056335;19;19926;-49
2022/09/10 05:24:46;;;;;;;;;;;;;;;14.54;100.00;100170.75;3056084;19;19922;-45
2022/09/10 05:25:51;;;;;;;;;;;;;;;14.59;100.00;100171.25;3056593;19;19935;-48
2022/09/10 05:26:53;;;;;;;;;;;;;;;14.61;100.00;100174.63;3056642;19;19914;-48
2022/09/10 05:27:59;;;;;;;;;;;;;;;14.63;100.00;100186.09;3057546;19;19915;-48
2022/09/10 05:29:01;;;;;;;;;;;;;;;14.64;100.00;100185.13;3056540;19;19931;-49
2022/09/10 05:30:06;;;;;;;;;;;;;;;14.63;100.00;100188.78;3056867;19;19930;-49
2022/09/10 05:31:09;;;;;;;;;;;;;;;14.50;100.00;100196.16;3056185;19;19922;-47
2022/09/10 05:32:15;;;;;;;;;;;;;;;14.55;100.00;100193.09;3056718;19;20259;-49
2022/09/10 05:33:17;;;;;;;;;;;;;;;14.55;100.00;100195.78;3056188;19;19923;-46